createdAt,value
2023-05-18T00:07:19.839Z,11
2023-05-18T00:12:40.570Z,11
2023-05-18T00:18:03.067Z,11
2023-05-18T00:23:24.118Z,11
2023-05-18T00:28:44.349Z,11
2023-05-18T00:34:21.864Z,11
2023-05-18T00:39:59.056Z,10.9
2023-05-18T00:45:50.533Z,10.9
2023-05-18T00:51:42.746Z,10.9
2023-05-18T00:57:18.743Z,10.9
2023-05-18T01:03:10.513Z,10.9
2023-05-18T01:08:31.492Z,10.8
2023-05-18T01:14:23.281Z,10.8
2023-05-18T01:20:14.634Z,10.8
2023-05-18T01:26:06.679Z,10.8
2023-05-18T01:31:42.457Z,10.8
2023-05-18T01:37:19.140Z,10.8
2023-05-18T01:43:13.013Z,10.7
2023-05-18T01:48:50.361Z,10.7
2023-05-18T01:54:26.353Z,10.7
2023-05-18T02:00:02.827Z,10.7
2023-05-18T02:05:56.790Z,10.7
2023-05-18T02:11:31.836Z,10.7
2023-05-18T02:17:23.726Z,10.6
2023-05-18T02:23:17.608Z,10.6
2023-05-18T02:29:10.750Z,10.6
2023-05-18T02:34:47.441Z,10.6
2023-05-18T02:40:24.320Z,10.6
2023-05-18T02:46:15.635Z,10.6
2023-05-18T02:51:52.528Z,10.6
2023-05-18T02:57:43.966Z,10.6
2023-05-18T03:03:38.038Z,10.6
2023-05-18T03:09:31.020Z,10.6
2023-05-18T03:15:22.432Z,10.6
2023-05-18T03:26:21.667Z,10.6
2023-05-18T03:31:58.104Z,10.6
2023-05-18T03:37:50.152Z,10.6
2023-05-18T03:43:42.463Z,10.6
2023-05-18T03:49:18.731Z,10.6
2023-05-18T03:55:10.235Z,10.6
2023-05-18T04:01:02.885Z,10.6
2023-05-18T04:06:55.996Z,10.6
2023-05-18T04:12:49.234Z,10.7
2023-05-18T04:18:41.952Z,10.8
2023-05-18T04:24:34.322Z,10.8
2023-05-18T04:30:25.558Z,10.8
2023-05-18T04:36:18.073Z,10.9
2023-05-18T04:41:54.815Z,10.9
2023-05-18T04:47:47.141Z,11
2023-05-18T04:53:39.602Z,11.1
2023-05-18T04:59:15.596Z,11.1
2023-05-18T05:05:10.576Z,11.3
2023-05-18T05:11:02.652Z,11.3
2023-05-18T05:16:54.385Z,11.4
2023-05-18T05:22:46.416Z,11.4
2023-05-18T05:28:39.193Z,11.5
2023-05-18T05:34:16.044Z,11.6
2023-05-18T05:40:07.976Z,11.6
2023-05-18T05:46:02.102Z,11.6
2023-05-18T05:51:54.035Z,11.6
2023-05-18T05:57:45.269Z,11.6
2023-05-18T06:03:37.922Z,11.6
2023-05-18T06:09:30.262Z,11.6
2023-05-18T06:15:24.259Z,11.7
2023-05-18T06:21:20.391Z,11.7
2023-05-18T06:27:11.565Z,11.8
2023-05-18T06:33:03.895Z,12
2023-05-18T06:38:41.666Z,12.3
2023-05-18T06:44:33.332Z,12.7
2023-05-18T06:50:09.897Z,13.3
2023-05-18T06:55:46.449Z,14.2
2023-05-18T07:01:37.782Z,15.1
2023-05-18T07:07:30.508Z,15.8
2023-05-18T07:12:51.800Z,16.2
2023-05-18T07:18:43.363Z,16.4
2023-05-18T07:24:37.689Z,16.4
2023-05-18T07:30:14.288Z,16.4
2023-05-18T07:36:06.629Z,16.3
2023-05-18T07:41:42.883Z,16.3
2023-05-18T07:47:35.842Z,16.3
2023-05-18T07:53:12.578Z,16.3
2023-05-18T07:58:48.066Z,16.4
2023-05-18T08:04:25.488Z,16.5
2023-05-18T08:10:02.229Z,16.6
2023-05-18T08:16:03.469Z,16.8
2023-05-18T08:21:47.678Z,16.9
2023-05-18T08:27:24.711Z,16.9
2023-05-18T08:33:01.943Z,16.9
2023-05-18T08:38:38.875Z,16.8
2023-05-18T08:44:15.492Z,16.7
2023-05-18T08:49:54.985Z,16.6
2023-05-18T08:55:31.679Z,16.6
2023-05-18T09:01:08.268Z,16.6
2023-05-18T09:06:45.194Z,16.6
2023-05-18T09:12:23.562Z,16.6
2023-05-18T09:18:00.444Z,16.6
2023-05-18T09:23:36.896Z,16.7
2023-05-18T09:29:13.580Z,16.7
2023-05-18T09:34:52.946Z,16.6
2023-05-18T09:40:29.929Z,16.7
2023-05-18T09:45:50.974Z,16.7
2023-05-18T09:51:12.612Z,16.8
2023-05-18T09:56:55.240Z,16.8
2023-05-18T10:02:26.584Z,16.9
2023-05-18T10:13:09.590Z,17.2
2023-05-18T10:18:26.459Z,17.4
2023-05-18T10:23:35.361Z,17.6
2023-05-18T10:29:13.026Z,17.9
2023-05-18T10:35:10.383Z,18.3
2023-05-18T10:40:47.026Z,18.5
2023-05-18T10:51:01.258Z,18.6
2023-05-18T10:57:21.355Z,18.5
2023-05-18T11:02:57.607Z,18.4
2023-05-18T11:08:18.869Z,18.2
2023-05-18T11:13:39.854Z,18.1
2023-05-18T11:19:16.404Z,17.9
2023-05-18T11:25:08.002Z,17.8
2023-05-18T11:30:53.599Z,17.6
2023-05-18T11:36:41.609Z,17.6
2023-05-18T11:42:34.082Z,17.4
2023-05-18T11:47:54.545Z,17.4
2023-05-18T11:53:33.843Z,17.2
2023-05-18T11:58:57.866Z,16.9
2023-05-18T12:04:42.299Z,16.6
2023-05-18T12:10:18.549Z,16.4
2023-05-18T12:15:39.772Z,16.1
2023-05-18T12:21:17.204Z,15.9
2023-05-18T12:26:52.431Z,15.6
2023-05-18T12:32:29.653Z,15.5
2023-05-18T12:38:02.148Z,15.4
2023-05-18T12:43:40.845Z,15.4
2023-05-18T12:49:35.769Z,15.3
2023-05-18T12:55:28.617Z,15.4
2023-05-18T13:01:05.395Z,15.5
2023-05-18T13:06:42.971Z,15.6
2023-05-18T13:13:01.475Z,15.8
2023-05-18T13:18:53.981Z,16.1
2023-05-18T13:24:33.237Z,16.5
2023-05-18T13:30:11.081Z,16.9
2023-05-18T13:35:47.837Z,17.3
2023-05-18T13:41:25.518Z,17.4
2023-05-18T13:46:46.689Z,17.6
2023-05-18T13:52:23.924Z,17.6
2023-05-18T13:58:17.826Z,17.5
2023-05-18T14:04:10.376Z,17.4
2023-05-18T14:09:32.510Z,17.4
2023-05-18T14:15:24.348Z,17.3
2023-05-18T14:21:16.369Z,17.2
2023-05-18T14:27:07.343Z,17.1
2023-05-18T14:32:59.619Z,16.9
2023-05-18T14:38:52.798Z,16.9
2023-05-18T14:44:28.094Z,16.9
2023-05-18T14:50:38.441Z,16.9
2023-05-18T14:56:29.419Z,16.9
2023-05-18T15:02:20.189Z,16.9
2023-05-18T15:08:14.006Z,16.9
2023-05-18T15:13:49.585Z,16.9
2023-05-18T15:19:41.351Z,16.9
2023-05-18T15:25:33.606Z,16.9
2023-05-18T15:31:26.328Z,16.8
2023-05-18T15:37:17.815Z,16.6
2023-05-18T15:43:10.028Z,16.4
2023-05-18T15:49:01.229Z,16.2
2023-05-18T15:54:37.398Z,15.9
2023-05-18T16:00:29.172Z,15.8
2023-05-18T16:06:21.763Z,15.6
2023-05-18T16:11:57.852Z,15.4
2023-05-18T16:17:37.383Z,15.3
2023-05-18T16:23:28.495Z,15.2
2023-05-18T16:28:49.836Z,15.1
2023-05-18T16:34:42.822Z,14.9
2023-05-18T16:40:34.966Z,14.8
2023-05-18T16:46:27.040Z,14.6
2023-05-18T16:52:22.013Z,14.4
2023-05-18T16:58:13.337Z,14.3
2023-05-18T17:04:21.588Z,14.1
2023-05-18T17:10:16.427Z,13.9
2023-05-18T17:15:53.025Z,13.8
2023-05-18T17:21:29.184Z,13.6
2023-05-18T17:27:32.724Z,13.4
2023-05-18T17:33:11.653Z,13.3
2023-05-18T17:39:03.099Z,13.1
2023-05-18T17:44:55.536Z,12.9
2023-05-18T17:50:47.701Z,12.8
2023-05-18T17:56:38.241Z,12.7
2023-05-18T18:02:15.514Z,12.5
2023-05-18T18:08:08.608Z,12.4
2023-05-18T18:13:45.062Z,12.3
2023-05-18T18:19:38.208Z,12.1
2023-05-18T18:25:14.592Z,12
2023-05-18T18:30:50.778Z,11.9
2023-05-18T18:36:12.274Z,11.8
2023-05-18T18:42:04.134Z,11.7
2023-05-18T18:47:56.117Z,11.6
2023-05-18T18:53:48.502Z,11.6
2023-05-18T18:59:39.432Z,11.4
2023-05-18T19:05:15.542Z,11.4
2023-05-18T19:16:45.189Z,11.2
2023-05-18T19:22:37.612Z,11.1
2023-05-18T19:28:29.899Z,11
2023-05-18T19:34:22.540Z,10.9
2023-05-18T19:39:58.981Z,10.8
2023-05-18T19:45:54.372Z,10.7
2023-05-18T19:51:46.464Z,10.6
2023-05-18T19:57:37.218Z,10.6
2023-05-18T20:03:30.149Z,10.5
2023-05-18T20:09:06.498Z,10.4
2023-05-18T20:14:58.491Z,10.4
2023-05-18T20:20:51.218Z,10.3
2023-05-18T20:26:12.072Z,10.3
2023-05-18T20:37:27.846Z,10.2
2023-05-18T20:48:40.624Z,10.1
2023-05-18T20:54:32.857Z,10.1
2023-05-18T21:00:24.500Z,10
2023-05-18T21:11:41.601Z,10
2023-05-18T21:17:17.553Z,9.9
2023-05-18T21:23:09.619Z,9.9
2023-05-18T21:29:01.499Z,9.9
2023-05-18T21:34:53.992Z,9.9
2023-05-18T21:40:45.605Z,9.9
2023-05-18T21:46:08.646Z,9.9
2023-05-18T21:51:46.216Z,9.8
2023-05-18T21:57:23.158Z,9.8
2023-05-18T22:02:59.889Z,9.8
2023-05-18T22:08:51.421Z,9.8
2023-05-18T22:14:27.254Z,9.8
2023-05-18T22:19:48.444Z,9.7
2023-05-18T22:25:51.660Z,9.6
2023-05-18T22:31:27.687Z,9.6
2023-05-18T22:37:04.024Z,9.6
2023-05-18T22:42:24.173Z,9.5
2023-05-18T22:48:15.929Z,9.5
2023-05-18T22:53:52.505Z,9.5
2023-05-18T22:59:28.510Z,9.4
2023-05-18T23:10:56.401Z,9.4
2023-05-18T23:16:48.122Z,9.4
2023-05-18T23:22:39.715Z,9.4
2023-05-18T23:28:31.816Z,9.4
2023-05-18T23:34:24.501Z,9.4
2023-05-18T23:40:16.186Z,9.4
2023-05-18T23:46:08.273Z,9.4
2023-05-18T23:52:00.295Z,9.4
2023-05-18T23:57:51.877Z,9.4
